createdAt,value
2018-05-07T00:00:46.352Z,58.65
2018-05-07T00:01:46.401Z,59.52
2018-05-07T00:02:46.421Z,59.52
2018-05-07T00:03:46.459Z,60.09
2018-05-07T00:04:46.494Z,59.71
2018-05-07T00:05:46.534Z,59.97
2018-05-07T00:06:46.560Z,59.87
2018-05-07T00:07:46.605Z,59.87
2018-05-07T00:08:46.631Z,60.35
2018-05-07T00:09:46.684Z,60.44
2018-05-07T00:10:46.699Z,60.06
2018-05-07T00:11:46.823Z,59.58
2018-05-07T00:12:46.779Z,59.87
2018-05-07T00:13:46.835Z,60.25
2018-05-07T00:14:46.840Z,59.77
2018-05-07T00:15:46.879Z,59.77
2018-05-07T00:16:46.913Z,60.16
2018-05-07T00:17:46.949Z,60.54
2018-05-07T00:18:46.982Z,61.11
2018-05-07T00:19:47.013Z,61.50
2018-05-07T00:20:47.049Z,62.36
2018-05-07T00:21:47.084Z,61.98
2018-05-07T00:22:47.119Z,61.98
2018-05-07T00:23:47.158Z,62.33
2018-05-07T00:24:47.188Z,62.04
2018-05-07T00:25:47.225Z,62.71
2018-05-07T00:26:47.265Z,63.10
2018-05-07T00:27:47.292Z,63.19
2018-05-07T00:28:47.328Z,63.76
2018-05-07T00:29:47.363Z,63.67
2018-05-07T00:30:47.396Z,63.96
2018-05-07T00:31:47.456Z,62.90
2018-05-07T00:32:47.466Z,63.29
2018-05-07T00:33:47.501Z,63.10
2018-05-07T00:34:47.535Z,62.71
2018-05-07T00:35:47.570Z,62.43
2018-05-07T00:36:47.605Z,62.43
2018-05-07T00:37:47.639Z,62.81
2018-05-07T00:38:47.678Z,63.00
2018-05-07T00:39:47.709Z,63.76
2018-05-07T00:40:47.743Z,63.67
2018-05-07T00:41:47.777Z,64.40
2018-05-07T00:42:47.811Z,64.59
2018-05-07T00:43:47.846Z,65.17
2018-05-07T00:44:47.881Z,65.08
2018-05-07T00:45:47.916Z,65.74
2018-05-07T00:46:47.950Z,65.55
2018-05-07T00:47:47.986Z,66.70
2018-05-07T00:48:48.019Z,67.82
2018-05-07T00:49:48.056Z,68.77
2018-05-07T00:50:48.088Z,69.15
2018-05-07T00:51:48.121Z,69.15
2018-05-07T00:52:48.158Z,68.39
2018-05-07T00:53:48.192Z,69.15
2018-05-07T00:54:48.226Z,68.77
2018-05-07T00:55:48.259Z,68.87
2018-05-07T00:56:48.293Z,69.15
2018-05-07T00:57:48.329Z,69.35
2018-05-07T00:58:48.361Z,69.89
2018-05-07T00:59:48.399Z,71.13
2018-05-07T01:00:48.433Z,71.80
2018-05-07T01:01:48.466Z,71.32
2018-05-07T01:02:48.498Z,71.51
2018-05-07T01:03:48.533Z,70.46
2018-05-07T01:04:48.569Z,71.22
2018-05-07T01:05:48.601Z,71.32
2018-05-07T01:06:48.634Z,71.32
2018-05-07T01:07:48.668Z,71.80
2018-05-07T01:08:48.702Z,71.61
2018-05-07T01:09:48.736Z,70.94
2018-05-07T01:10:48.770Z,71.32
2018-05-07T01:11:48.809Z,71.61
2018-05-07T01:12:48.912Z,71.99
2018-05-07T01:13:48.873Z,73.52
2018-05-07T01:14:48.905Z,74.91
2018-05-07T01:15:48.940Z,75.20
2018-05-07T01:16:48.982Z,74.98
2018-05-07T01:17:49.006Z,74.73
2018-05-07T01:18:49.089Z,74.34
2018-05-07T01:19:49.075Z,74.05
2018-05-07T01:20:49.108Z,73.67
2018-05-07T01:21:49.142Z,74.44
2018-05-07T01:22:49.177Z,74.73
2018-05-07T01:23:49.209Z,74.82
2018-05-07T01:24:49.243Z,74.53
2018-05-07T01:25:49.277Z,74.11
2018-05-07T01:26:49.309Z,73.48
2018-05-07T01:27:49.342Z,74.73
2018-05-07T01:28:49.375Z,74.53
2018-05-07T01:29:49.410Z,74.59
2018-05-07T01:30:49.444Z,75.16
2018-05-07T01:31:49.476Z,74.88
2018-05-07T01:32:49.510Z,75.26
2018-05-07T01:33:49.543Z,75.07
2018-05-07T01:34:49.576Z,75.54
2018-05-07T01:35:49.609Z,75.83
2018-05-07T01:36:49.643Z,76.21
2018-05-07T01:37:49.676Z,76.03
2018-05-07T01:38:49.709Z,76.03
2018-05-07T01:39:49.742Z,76.50
2018-05-07T01:40:49.775Z,76.79
2018-05-07T01:41:49.810Z,77.94
2018-05-07T01:42:49.840Z,78.37
2018-05-07T01:43:49.875Z,78.75
2018-05-07T01:45:49.941Z,78.94
2018-05-07T01:46:49.993Z,79.61
2018-05-07T01:47:50.007Z,79.43
2018-05-07T01:48:50.060Z,79.23
2018-05-07T01:49:50.096Z,78.51
2018-05-07T01:50:50.128Z,78.09
2018-05-07T01:51:50.159Z,77.32
2018-05-07T01:52:50.799Z,78.13
2018-05-07T01:53:50.633Z,79.14
2018-05-07T01:54:50.237Z,78.75
2018-05-07T01:55:50.294Z,79.14
2018-05-07T01:56:50.302Z,79.23
2018-05-07T01:57:50.357Z,78.94
2018-05-07T01:58:50.592Z,78.37
2018-05-07T01:59:51.029Z,78.37
2018-05-07T02:00:50.454Z,78.94
2018-05-07T02:01:50.792Z,79.23
2018-05-07T02:02:50.723Z,79.52
2018-05-07T02:03:50.555Z,79.23
2018-05-07T02:04:50.769Z,79.43
2018-05-07T02:05:50.599Z,79.14
2018-05-07T02:06:50.651Z,78.75
2018-05-07T02:07:50.866Z,78.85
2018-05-07T02:08:50.696Z,78.94
2018-05-07T02:09:50.731Z,78.94
2018-05-07T02:10:50.763Z,78.66
2018-05-07T02:11:50.795Z,79.04
2018-05-07T02:12:51.030Z,78.47
2018-05-07T02:13:51.063Z,78.94
2018-05-07T02:14:50.915Z,79.14
2018-05-07T02:15:50.946Z,78.66
2018-05-07T02:16:51.179Z,78.94
2018-05-07T02:20:51.089Z,79.61
2018-05-07T02:21:51.122Z,79.90
2018-05-07T02:22:51.153Z,79.80
2018-05-07T02:23:51.185Z,79.52
2018-05-07T02:24:51.222Z,79.80
2018-05-07T02:25:51.252Z,79.96
2018-05-07T02:26:51.284Z,79.90
2018-05-07T02:27:51.316Z,80.24
2018-05-07T02:28:51.349Z,80.19
2018-05-07T02:29:51.382Z,80.19
2018-05-07T02:30:51.414Z,80.43
2018-05-07T02:31:51.470Z,80.76
2018-05-07T02:32:51.481Z,81.24
2018-05-07T02:33:51.512Z,81.14
2018-05-07T02:34:51.567Z,81.01
2018-05-07T02:35:51.577Z,81.29
2018-05-07T02:36:51.610Z,81.86
2018-05-07T02:37:51.659Z,82.24
2018-05-07T02:38:51.741Z,83.01
2018-05-07T02:39:51.728Z,83.29
2018-05-07T02:40:53.172Z,83.48
2018-05-07T02:41:51.772Z,83.48
2018-05-07T02:42:51.806Z,83.11
2018-05-07T02:43:52.162Z,83.48
2018-05-07T02:44:51.875Z,83.01
2018-05-07T02:45:51.901Z,83.01
2018-05-07T02:46:51.931Z,82.15
2018-05-07T02:49:52.030Z,83.58
2018-05-07T02:50:52.061Z,83.87
2018-05-07T02:51:52.095Z,83.35
2018-05-07T02:52:52.126Z,83.35
2018-05-07T02:53:52.159Z,83.48
2018-05-07T02:54:52.190Z,83.29
2018-05-07T02:55:52.223Z,83.35
2018-05-07T02:56:52.275Z,83.44
2018-05-07T02:57:52.309Z,83.35
2018-05-07T02:58:52.339Z,83.83
2018-05-07T02:59:52.573Z,83.39
2018-05-07T03:00:52.610Z,83.87
2018-05-07T03:08:30.442Z,83.35
2018-05-07T03:09:30.473Z,84.11
2018-05-07T03:10:30.507Z,83.73
2018-05-07T03:11:30.537Z,84.88
2018-05-07T03:12:30.570Z,84.78
2018-05-07T03:13:30.602Z,84.20
2018-05-07T03:14:30.633Z,84.59
2018-05-07T03:15:30.665Z,84.69
2018-05-07T03:16:30.698Z,84.69
2018-05-07T03:17:30.734Z,84.69
2018-05-07T03:18:30.762Z,84.59
2018-05-07T03:19:30.799Z,84.20
2018-05-07T03:20:30.827Z,84.30
2018-05-07T03:21:30.929Z,83.92
2018-05-07T03:22:30.890Z,84.30
2018-05-07T03:23:30.921Z,84.97
2018-05-07T03:24:30.953Z,85.16
2018-05-07T03:25:30.987Z,86.40
2018-05-07T03:26:31.019Z,87.07
2018-05-07T03:27:31.049Z,86.49
2018-05-07T03:28:31.087Z,85.64
2018-05-07T03:29:31.114Z,85.25
2018-05-07T03:30:31.147Z,85.16
2018-05-07T03:31:31.181Z,86.02
2018-05-07T03:32:31.209Z,86.69
2018-05-07T03:33:31.242Z,86.88
2018-05-07T03:34:31.274Z,87.07
2018-05-07T03:35:31.305Z,87.74
2018-05-07T03:36:31.338Z,88.21
2018-05-07T03:37:31.571Z,87.12
2018-05-07T03:38:31.420Z,88.36
2018-05-07T03:39:31.431Z,88.17
2018-05-07T03:40:31.474Z,89.03
2018-05-07T03:41:31.515Z,88.93
2018-05-07T03:46:31.676Z,89.69
2018-05-07T03:47:31.909Z,90.17
2018-05-07T03:48:31.737Z,90.60
2018-05-07T03:49:31.775Z,91.36
2018-05-07T03:50:32.005Z,91.69
2018-05-07T03:51:31.835Z,91.36
2018-05-07T03:52:31.866Z,91.08
2018-05-07T03:53:31.903Z,91.46
2018-05-07T03:54:31.937Z,92.13
2018-05-07T03:55:31.961Z,92.41
2018-05-07T03:56:31.994Z,92.22
2018-05-07T03:57:32.027Z,91.46
2018-05-07T03:58:32.057Z,91.27
2018-05-07T03:59:32.089Z,91.36
2018-05-07T04:00:32.121Z,91.74
2018-05-07T04:01:32.137Z,91.94
2018-05-07T04:02:32.253Z,92.98
2018-05-07T04:03:32.196Z,92.89
2018-05-07T04:04:32.229Z,92.32
2018-05-07T04:05:32.281Z,92.03
2018-05-07T04:06:32.314Z,93.17
2018-05-07T04:07:32.324Z,92.60
2018-05-07T04:08:32.361Z,92.32
2018-05-07T04:09:32.393Z,92.41
2018-05-07T04:10:32.419Z,92.32
2018-05-07T04:11:32.451Z,91.74
2018-05-07T04:12:32.483Z,92.22
2018-05-07T04:13:32.515Z,92.22
2018-05-07T04:14:32.547Z,92.89
2018-05-07T04:15:32.578Z,93.27
2018-05-07T04:16:32.610Z,92.03
2018-05-07T04:17:32.640Z,92.22
2018-05-07T04:18:32.673Z,92.13
2018-05-07T04:19:32.705Z,92.89
2018-05-07T04:20:32.737Z,93.65
2018-05-07T04:21:32.769Z,94.03
2018-05-07T04:22:32.800Z,93.37
2018-05-07T04:23:32.915Z,92.79
2018-05-07T04:24:32.863Z,93.37
2018-05-07T04:25:32.895Z,93.17
2018-05-07T04:26:32.928Z,93.17
2018-05-07T04:27:32.957Z,93.27
2018-05-07T04:28:32.991Z,94.13
2018-05-07T04:29:33.022Z,93.74
2018-05-07T04:30:33.053Z,93.84
2018-05-07T04:31:33.083Z,93.74
2018-05-07T04:32:33.115Z,93.46
2018-05-07T04:33:33.147Z,93.46
2018-05-07T04:34:33.180Z,93.46
2018-05-07T04:35:33.210Z,93.65
2018-05-07T04:36:33.243Z,92.98
2018-05-07T04:37:33.274Z,92.69
2018-05-07T04:38:33.307Z,93.74
2018-05-07T04:39:33.337Z,92.98
2018-05-07T04:40:33.368Z,93.46
2018-05-07T04:41:33.401Z,93.37
2018-05-07T04:42:33.433Z,93.74
2018-05-07T04:43:33.466Z,93.74
2018-05-07T04:44:33.496Z,93.46
2018-05-07T04:45:33.545Z,92.50
2018-05-07T04:46:33.559Z,93.70
2018-05-07T04:47:33.591Z,93.41
2018-05-07T04:48:33.622Z,92.84
2018-05-07T04:49:33.655Z,91.88
2018-05-07T04:50:33.685Z,91.88
2018-05-07T04:51:33.717Z,91.65
2018-05-07T04:52:33.781Z,93.03
2018-05-07T04:53:33.780Z,92.89
2018-05-07T04:54:33.813Z,93.03
2018-05-07T04:55:33.843Z,92.32
2018-05-07T04:56:33.875Z,92.13
2018-05-07T04:58:34.143Z,91.60
2018-05-07T04:59:33.988Z,91.88
2018-05-07T05:00:34.003Z,91.13
2018-05-07T05:01:34.037Z,91.13
2018-05-07T05:02:34.067Z,92.27
2018-05-07T05:03:34.098Z,91.31
2018-05-07T05:04:34.147Z,91.69
2018-05-07T05:05:34.179Z,91.79
2018-05-07T05:06:34.193Z,92.17
2018-05-07T05:07:34.226Z,90.84
2018-05-07T05:08:34.256Z,90.41
2018-05-07T05:09:34.293Z,91.55
2018-05-07T05:10:34.342Z,90.79
2018-05-07T05:11:34.351Z,90.22
2018-05-07T05:12:34.790Z,89.69
2018-05-07T05:13:34.414Z,89.21
2018-05-07T05:14:34.449Z,87.97
2018-05-07T05:15:34.478Z,86.54
2018-05-07T05:16:34.514Z,86.92
2018-05-07T05:17:34.561Z,85.97
2018-05-07T05:18:34.576Z,85.77
2018-05-07T05:19:34.606Z,85.87
2018-05-07T05:20:34.639Z,85.44
2018-05-07T05:21:34.672Z,84.86
2018-05-07T05:22:34.703Z,85.72
2018-05-07T05:23:34.734Z,85.44
2018-05-07T05:24:34.767Z,85.82
2018-05-07T05:25:34.800Z,85.91
2018-05-07T05:26:34.833Z,85.34
2018-05-07T05:27:34.882Z,85.25
2018-05-07T05:28:34.897Z,84.33
2018-05-07T05:29:34.930Z,85.10
2018-05-07T05:30:34.961Z,84.14
2018-05-07T05:31:34.994Z,83.67
2018-05-07T05:32:35.027Z,84.52
2018-05-07T05:33:35.060Z,84.23
2018-05-07T05:34:35.092Z,83.28
2018-05-07T05:35:35.128Z,83.70
2018-05-07T05:36:35.157Z,83.42
2018-05-07T05:37:35.191Z,83.90
2018-05-07T05:38:35.225Z,82.75
2018-05-07T05:39:35.255Z,83.13
2018-05-07T05:40:35.287Z,81.89
2018-05-07T05:41:35.322Z,82.08
2018-05-07T05:42:35.355Z,81.89
2018-05-07T05:43:35.460Z,81.60
2018-05-07T05:44:35.441Z,80.98
2018-05-07T05:45:35.450Z,81.07
2018-05-07T05:46:35.484Z,81.26
2018-05-07T05:47:35.516Z,80.11
2018-05-07T05:48:35.568Z,80.02
2018-05-07T05:49:35.584Z,79.35
2018-05-07T05:50:35.639Z,79.35
2018-05-07T05:51:35.668Z,79.25
2018-05-07T05:52:35.682Z,78.87
2018-05-07T05:53:35.714Z,79.25
2018-05-07T05:54:35.751Z,79.25
2018-05-07T05:55:35.781Z,79.25
2018-05-07T05:56:35.814Z,79.16
2018-05-07T05:57:35.848Z,78.97
2018-05-07T05:58:35.880Z,78.49
2018-05-07T05:59:35.914Z,78.43
2018-05-07T06:00:35.947Z,78.20
2018-05-07T06:01:35.981Z,78.11
2018-05-07T06:02:36.015Z,78.49
2018-05-07T06:03:36.140Z,77.92
2018-05-07T06:04:36.085Z,78.11
2018-05-07T06:05:36.114Z,78.11
2018-05-07T06:06:36.148Z,77.09
2018-05-07T06:07:36.180Z,77.48
2018-05-07T06:08:36.215Z,77.09
2018-05-07T06:09:36.249Z,77.38
2018-05-07T06:10:36.281Z,77.76
2018-05-07T06:11:36.319Z,77.48
2018-05-07T06:12:36.348Z,76.42
2018-05-07T06:13:36.382Z,76.33
2018-05-07T06:14:36.491Z,76.04
2018-05-07T06:15:36.449Z,75.27
2018-05-07T06:16:36.483Z,75.18
2018-05-07T06:17:36.518Z,74.99
2018-05-07T06:18:36.551Z,75.22
2018-05-07T06:19:36.584Z,74.61
2018-05-07T06:20:36.617Z,74.65
2018-05-07T06:21:36.654Z,74.84
2018-05-07T06:22:36.686Z,74.65
2018-05-07T06:23:36.719Z,74.26
2018-05-07T06:24:36.754Z,74.16
2018-05-07T06:25:36.786Z,74.41
2018-05-07T06:26:36.823Z,74.55
2018-05-07T06:27:36.854Z,74.74
2018-05-07T06:28:36.888Z,74.93
2018-05-07T06:29:36.923Z,74.93
2018-05-07T06:30:36.957Z,74.84
2018-05-07T06:31:36.991Z,75.12
2018-05-07T06:32:37.024Z,74.65
2018-05-07T06:33:37.058Z,74.65
2018-05-07T06:34:37.094Z,73.88
2018-05-07T06:35:37.151Z,74.16
2018-05-07T06:36:37.160Z,73.79
2018-05-07T06:37:37.194Z,72.83
2018-05-07T06:38:37.237Z,73.30
2018-05-07T06:39:37.261Z,73.34
2018-05-07T06:40:37.298Z,73.34
2018-05-07T06:41:37.332Z,73.05
2018-05-07T06:42:37.364Z,73.05
2018-05-07T06:43:37.398Z,72.48
2018-05-07T06:44:37.433Z,72.38
2018-05-07T06:45:37.499Z,72.48
2018-05-07T06:46:37.501Z,72.29
2018-05-07T06:47:37.540Z,72.67
2018-05-07T06:48:37.570Z,72.38
2018-05-07T06:49:37.606Z,72.29
2018-05-07T06:50:37.640Z,72.67
2018-05-07T06:51:37.673Z,72.29
2018-05-07T06:52:37.708Z,72.13
2018-05-07T06:53:37.742Z,71.66
2018-05-07T06:54:37.775Z,71.56
2018-05-07T06:55:37.809Z,71.56
2018-05-07T06:56:37.845Z,71.56
2018-05-07T06:57:37.879Z,71.66
2018-05-07T06:58:37.913Z,70.98
2018-05-07T06:59:37.948Z,70.83
2018-05-07T07:00:37.982Z,70.35
2018-05-07T07:01:38.017Z,70.54
2018-05-07T07:02:38.125Z,70.54
2018-05-07T07:03:38.086Z,70.35
2018-05-07T07:04:38.146Z,70.00
2018-05-07T07:05:38.184Z,69.33
2018-05-07T07:06:38.218Z,69.33
2018-05-07T07:07:38.255Z,69.23
2018-05-07T07:08:38.373Z,68.66
2018-05-07T07:09:38.296Z,68.75
2018-05-07T07:10:38.332Z,68.66
2018-05-07T07:11:38.365Z,68.56
2018-05-07T07:12:38.399Z,68.95
2018-05-07T07:13:38.439Z,68.66
2018-05-07T07:14:38.470Z,68.79
2018-05-07T07:15:38.504Z,68.30
2018-05-07T07:16:38.544Z,67.73
2018-05-07T07:17:38.574Z,67.25
2018-05-07T07:18:38.611Z,67.35
2018-05-07T07:19:38.645Z,67.35
2018-05-07T07:20:38.680Z,67.44
2018-05-07T07:21:38.715Z,67.63
2018-05-07T07:22:38.755Z,67.16
2018-05-07T07:23:38.788Z,66.29
2018-05-07T07:24:38.822Z,66.80
2018-05-07T07:25:38.858Z,67.29
2018-05-07T07:26:38.894Z,66.49
2018-05-07T07:27:38.928Z,66.23
2018-05-07T07:28:38.964Z,65.46
2018-05-07T07:29:38.999Z,66.03
2018-05-07T07:30:39.035Z,65.75
2018-05-07T07:31:39.071Z,65.84
2018-05-07T07:32:39.139Z,65.56
2018-05-07T07:33:39.215Z,66.23
2018-05-07T07:34:39.180Z,65.88
2018-05-07T07:35:39.238Z,65.97
2018-05-07T07:36:39.273Z,65.40
2018-05-07T07:37:39.308Z,64.92
2018-05-07T07:38:39.348Z,65.59
2018-05-07T07:39:39.387Z,65.01
2018-05-07T07:40:39.420Z,65.20
2018-05-07T07:41:39.459Z,65.75
2018-05-07T07:42:39.464Z,65.78
2018-05-07T07:43:39.501Z,65.69
2018-05-07T07:44:39.536Z,65.97
2018-05-07T07:45:39.574Z,65.97
2018-05-07T07:46:39.611Z,65.88
2018-05-07T07:47:39.646Z,66.46
2018-05-07T07:48:39.680Z,66.26
2018-05-07T07:49:39.719Z,66.64
2018-05-07T07:50:39.755Z,66.55
2018-05-07T07:51:39.790Z,66.49
2018-05-07T07:52:39.827Z,66.00
2018-05-07T07:53:39.914Z,65.33
2018-05-07T07:54:39.900Z,65.81
2018-05-07T07:55:39.937Z,65.81
2018-05-07T07:56:39.972Z,65.53
2018-05-07T07:57:40.009Z,65.05
2018-05-07T07:58:40.045Z,64.89
2018-05-07T07:59:40.080Z,64.89
2018-05-07T08:00:40.119Z,64.69
2018-05-07T08:01:40.180Z,64.22
2018-05-07T08:02:40.191Z,64.69
2018-05-07T08:03:40.228Z,63.95
2018-05-07T08:04:40.264Z,63.18
2018-05-07T08:05:40.306Z,64.25
2018-05-07T08:06:40.338Z,62.99
2018-05-07T08:07:40.374Z,61.87
2018-05-07T08:08:40.412Z,60.33
2018-05-07T08:09:40.449Z,60.52
2018-05-07T08:10:40.488Z,61.68
2018-05-07T08:11:40.523Z,61.22
2018-05-07T08:12:40.561Z,60.65
2018-05-07T08:13:40.598Z,61.29
2018-05-07T08:14:40.636Z,62.26
2018-05-07T08:15:40.673Z,61.77
2018-05-07T08:16:40.709Z,61.10
2018-05-07T08:17:40.748Z,61.39
2018-05-07T08:18:40.785Z,61.90
2018-05-07T08:19:40.829Z,60.36
2018-05-07T08:20:40.860Z,60.58
2018-05-07T08:21:40.897Z,60.68
2018-05-07T08:22:40.935Z,60.30
2018-05-07T08:23:40.972Z,59.33
2018-05-07T08:24:41.231Z,59.04
2018-05-07T08:25:41.050Z,58.01
2018-05-07T08:26:41.086Z,56.66
2018-05-07T08:27:41.125Z,56.27
2018-05-07T08:28:41.169Z,56.09
2018-05-07T08:29:41.202Z,56.76
2018-05-07T08:30:41.239Z,58.30
2018-05-07T08:31:41.277Z,56.95
2018-05-07T08:32:41.318Z,56.47
2018-05-07T08:33:41.358Z,56.88
2018-05-07T08:34:41.397Z,57.37
2018-05-07T08:35:41.432Z,57.65
2018-05-07T08:36:41.493Z,56.98
2018-05-07T08:37:41.511Z,56.98
2018-05-07T08:38:41.554Z,56.04
2018-05-07T08:39:41.591Z,56.04
2018-05-07T08:40:41.635Z,55.46
2018-05-07T08:41:41.666Z,55.27
2018-05-07T08:42:41.706Z,55.36
2018-05-07T08:43:41.744Z,55.27
2018-05-07T08:44:41.783Z,55.85
2018-05-07T08:45:41.821Z,55.27
2018-05-07T08:46:41.862Z,55.46
2018-05-07T08:47:41.900Z,54.79
2018-05-07T08:48:41.941Z,54.50
2018-05-07T08:49:41.986Z,54.69
2018-05-07T08:50:42.025Z,54.43
2018-05-07T08:51:42.058Z,53.63
2018-05-07T08:52:42.100Z,54.24
2018-05-07T08:53:42.136Z,53.53
2018-05-07T08:54:42.175Z,53.75
2018-05-07T08:55:42.215Z,53.47
2018-05-07T08:56:42.258Z,53.75
2018-05-07T08:57:42.292Z,54.05
2018-05-07T08:58:42.333Z,53.75
2018-05-07T08:59:42.373Z,53.47
2018-05-07T09:00:42.411Z,53.69
2018-05-07T09:01:42.451Z,52.59
2018-05-07T09:02:42.489Z,52.50
2018-05-07T09:03:42.529Z,52.98
2018-05-07T09:04:42.570Z,53.37
2018-05-07T09:05:42.608Z,52.91
2018-05-07T09:06:42.647Z,52.91
2018-05-07T09:07:42.686Z,52.91
2018-05-07T09:08:42.758Z,53.03
2018-05-07T09:09:42.766Z,52.81
2018-05-07T09:10:42.805Z,52.62
2018-05-07T09:11:42.846Z,52.81
2018-05-07T09:12:42.885Z,52.45
2018-05-07T09:13:43.003Z,52.84
2018-05-07T09:14:42.965Z,52.36
2018-05-07T09:15:43.002Z,52.65
2018-05-07T09:16:43.045Z,52.65
2018-05-07T09:17:43.084Z,52.84
2018-05-07T09:18:43.124Z,52.65
2018-05-07T09:19:43.162Z,51.59
2018-05-07T09:20:43.203Z,51.59
2018-05-07T09:21:43.241Z,51.71
2018-05-07T09:22:43.283Z,51.23
2018-05-07T09:23:43.323Z,50.93
2018-05-07T09:24:43.384Z,49.97
2018-05-07T09:25:43.403Z,50.84
2018-05-07T09:26:43.442Z,50.09
2018-05-07T09:27:43.498Z,50.55
2018-05-07T09:28:43.539Z,50.28
2018-05-07T09:29:43.562Z,50.07
2018-05-07T09:30:43.624Z,50.18
2018-05-07T09:31:43.968Z,50.09
2018-05-07T09:32:43.686Z,50.28
2018-05-07T09:33:43.722Z,49.51
2018-05-07T09:34:43.763Z,49.34
2018-05-07T09:35:43.803Z,49.02
2018-05-07T09:36:43.842Z,48.66
2018-05-07T09:37:43.885Z,49.32
2018-05-07T09:38:43.924Z,48.57
2018-05-07T09:39:43.965Z,48.37
2018-05-07T09:40:44.021Z,47.60
2018-05-07T09:41:44.068Z,47.50
2018-05-07T09:42:44.086Z,47.79
2018-05-07T09:43:44.125Z,47.14
2018-05-07T09:44:44.166Z,47.33
2018-05-07T09:45:44.206Z,47.69
2018-05-07T09:46:44.248Z,47.31
2018-05-07T09:47:44.287Z,47.50
2018-05-07T09:48:44.328Z,47.52
2018-05-07T09:49:44.370Z,47.24
2018-05-07T09:50:44.411Z,46.17
2018-05-07T09:51:44.453Z,46.26
2018-05-07T09:52:44.494Z,46.17
2018-05-07T09:53:44.532Z,46.08
2018-05-07T09:54:44.574Z,45.59
2018-05-07T09:55:44.690Z,45.30
2018-05-07T09:56:44.783Z,45.71
2018-05-07T09:57:44.696Z,45.61
2018-05-07T09:58:44.740Z,44.84
2018-05-07T09:59:44.777Z,44.74
2018-05-07T10:00:44.819Z,44.18
2018-05-07T10:01:44.860Z,43.23
2018-05-07T10:02:44.901Z,42.29
2018-05-07T10:03:44.946Z,40.73
2018-05-07T10:04:44.984Z,39.80
2018-05-07T10:05:45.032Z,39.16
2018-05-07T10:06:45.069Z,38.21
2018-05-07T10:07:45.110Z,37.43
2018-05-07T10:08:45.153Z,37.64
2018-05-07T10:09:45.195Z,36.57
2018-05-07T10:10:45.241Z,36.71
2018-05-07T10:11:45.285Z,36.20
2018-05-07T10:12:45.329Z,35.65
2018-05-07T10:13:45.376Z,34.69
2018-05-07T10:14:45.427Z,33.54
2018-05-07T10:15:45.468Z,32.63
2018-05-07T10:16:45.515Z,31.59
2018-05-07T10:17:45.561Z,30.80
2018-05-07T10:18:45.610Z,30.13
2018-05-07T10:19:45.656Z,30.13
2018-05-07T10:20:45.726Z,29.20
2018-05-07T10:21:45.754Z,29.10
2018-05-07T10:22:45.803Z,30.05
2018-05-07T10:23:45.853Z,29.68
2018-05-07T10:24:45.904Z,29.59
2018-05-07T10:25:45.968Z,29.58
2018-05-07T10:26:46.002Z,28.43
2018-05-07T10:27:46.052Z,28.31
2018-05-07T10:28:46.101Z,28.51
2018-05-07T10:29:46.165Z,27.73
2018-05-07T10:30:46.204Z,28.23
2018-05-07T10:31:46.254Z,27.57
2018-05-07T10:32:46.304Z,27.15
2018-05-07T10:33:46.357Z,27.56
2018-05-07T10:34:46.627Z,27.47
2018-05-07T10:35:46.461Z,28.41
2018-05-07T10:36:46.512Z,29.38
2018-05-07T10:37:46.583Z,28.89
2018-05-07T10:38:46.632Z,31.08
2018-05-07T10:39:46.688Z,31.08
2018-05-07T10:40:46.738Z,30.35
2018-05-07T10:41:46.771Z,30.02
2018-05-07T10:42:47.057Z,30.30
2018-05-07T10:43:46.879Z,29.36
2018-05-07T10:44:46.933Z,29.08
2018-05-07T10:45:46.981Z,28.44
2018-05-07T10:46:47.035Z,27.39
2018-05-07T10:47:47.085Z,26.69
2018-05-07T10:48:47.140Z,26.32
2018-05-07T10:49:47.191Z,25.37
2018-05-07T10:50:47.246Z,24.87
2018-05-07T10:51:47.299Z,25.52
2018-05-07T10:52:47.354Z,26.38
2018-05-07T10:53:47.406Z,26.80
2018-05-07T10:54:47.459Z,26.81
2018-05-07T10:55:47.512Z,26.05
2018-05-07T10:56:47.565Z,25.96
2018-05-07T10:57:47.623Z,25.95
2018-05-07T10:58:47.675Z,25.82
2018-05-07T10:59:47.727Z,27.53
2018-05-07T11:00:47.779Z,27.46
2018-05-07T11:01:47.834Z,27.18
2018-05-07T11:02:47.888Z,26.21
2018-05-07T11:03:47.942Z,24.88
2018-05-07T11:04:47.997Z,24.12
2018-05-07T11:05:48.051Z,24.41
2018-05-07T11:06:48.105Z,23.61
2018-05-07T11:07:48.163Z,23.89
2018-05-07T11:08:48.215Z,24.18
2018-05-07T11:09:48.267Z,24.00
2018-05-07T11:10:48.322Z,24.29
2018-05-07T11:11:48.375Z,23.99
2018-05-07T11:12:48.433Z,23.50
2018-05-07T11:13:48.485Z,23.57
2018-05-07T11:14:48.540Z,23.97
2018-05-07T11:15:48.594Z,23.58
2018-05-07T11:16:48.648Z,24.97
2018-05-07T11:17:48.722Z,25.04
2018-05-07T11:18:48.784Z,24.36
2018-05-07T11:19:48.886Z,24.75
2018-05-07T11:20:48.869Z,24.75
2018-05-07T11:21:48.923Z,25.31
2018-05-07T11:22:48.977Z,25.71
2018-05-07T11:23:49.034Z,25.70
2018-05-07T11:24:49.088Z,25.42
2018-05-07T11:25:49.141Z,24.96
2018-05-07T11:26:49.197Z,23.88
2018-05-07T11:27:49.251Z,23.99
2018-05-07T11:28:49.309Z,24.86
2018-05-07T11:29:49.362Z,24.08
2018-05-07T11:30:49.418Z,23.24
2018-05-07T11:31:49.471Z,22.75
2018-05-07T11:32:49.527Z,22.27
2018-05-07T11:33:49.584Z,22.45
2018-05-07T11:34:49.638Z,23.14
2018-05-07T11:35:49.702Z,23.04
2018-05-07T11:36:49.748Z,22.37
2018-05-07T11:37:49.806Z,22.86
2018-05-07T11:38:49.859Z,21.70
2018-05-07T11:39:49.912Z,21.21
2018-05-07T11:40:49.968Z,22.66
2018-05-07T11:41:50.025Z,22.66
2018-05-07T11:42:50.082Z,24.74
2018-05-07T11:43:50.134Z,25.23
2018-05-07T11:44:50.191Z,24.57
2018-05-07T11:45:50.246Z,24.00
2018-05-07T11:46:50.302Z,22.15
2018-05-07T11:47:50.357Z,22.56
2018-05-07T11:48:50.412Z,22.27
2018-05-07T11:49:50.492Z,21.24
2018-05-07T11:50:50.548Z,19.89
2018-05-07T11:51:50.595Z,19.68
2018-05-07T11:52:50.637Z,19.76
2018-05-07T11:53:50.691Z,19.98
2018-05-07T11:54:50.748Z,20.62
2018-05-07T11:55:50.803Z,21.61
2018-05-07T11:56:50.859Z,20.62
2018-05-07T11:57:50.918Z,21.00
2018-05-07T11:58:50.972Z,21.01
2018-05-07T11:59:51.026Z,21.02
2018-05-07T12:00:51.083Z,19.96
2018-05-07T12:01:51.139Z,18.52
2018-05-07T12:02:51.251Z,19.87
2018-05-07T12:03:51.250Z,19.98
2018-05-07T12:04:51.307Z,19.84
2018-05-07T12:05:51.365Z,19.87
2018-05-07T12:06:51.419Z,19.39
2018-05-07T12:07:51.502Z,18.61
2018-05-07T12:08:51.532Z,19.01
2018-05-07T12:09:51.590Z,19.49
2018-05-07T12:10:51.648Z,19.93
2018-05-07T12:11:51.702Z,19.85
2018-05-07T12:12:51.759Z,19.87
2018-05-07T12:13:51.816Z,19.48
2018-05-07T12:14:51.874Z,18.49
2018-05-07T12:15:52.025Z,17.73
2018-05-07T12:16:51.985Z,17.14
2018-05-07T12:17:52.041Z,16.76
2018-05-07T12:18:52.099Z,18.01
2018-05-07T12:19:52.156Z,17.74
2018-05-07T12:20:52.210Z,18.21
2018-05-07T12:21:52.267Z,19.77
2018-05-07T12:22:52.325Z,19.39
2018-05-07T12:23:52.382Z,18.38
2018-05-07T12:24:52.439Z,18.79
2018-05-07T12:25:52.497Z,19.09
2018-05-07T12:26:52.553Z,18.31
2018-05-07T12:27:52.610Z,20.42
2018-05-07T12:28:52.667Z,19.85
2018-05-07T12:29:52.724Z,19.93
2018-05-07T12:30:52.781Z,20.03
2018-05-07T12:31:52.916Z,19.35
2018-05-07T12:32:52.894Z,20.11
2018-05-07T12:33:52.953Z,20.30
2018-05-07T12:34:53.008Z,20.32
2018-05-07T12:35:53.065Z,20.22
2018-05-07T12:36:53.122Z,20.04
2018-05-07T12:37:53.176Z,19.93
2018-05-07T12:38:53.235Z,19.37
2018-05-07T12:39:53.290Z,19.82
2018-05-07T12:40:53.345Z,19.74
2018-05-07T12:41:53.409Z,19.07
2018-05-07T12:42:53.459Z,19.01
2018-05-07T12:43:53.515Z,17.91
2018-05-07T12:44:53.573Z,17.43
2018-05-07T12:45:53.631Z,18.01
2018-05-07T12:46:53.793Z,17.32
2018-05-07T12:47:53.743Z,17.72
2018-05-07T12:48:53.794Z,18.27
2018-05-07T12:49:53.859Z,19.07
2018-05-07T12:50:53.906Z,19.37
2018-05-07T12:51:53.962Z,17.90
2018-05-07T12:52:54.019Z,18.10
2018-05-07T12:53:54.074Z,17.80
2018-05-07T12:54:54.130Z,17.12
2018-05-07T12:55:54.185Z,17.21
2018-05-07T12:56:54.243Z,17.41
2018-05-07T12:57:54.298Z,16.83
2018-05-07T12:58:54.353Z,17.03
2018-05-07T12:59:54.411Z,17.60
2018-05-07T13:00:54.467Z,17.80
2018-05-07T13:01:54.520Z,18.29
2018-05-07T13:02:54.578Z,18.27
2018-05-07T13:03:54.632Z,20.31
2018-05-07T13:04:54.689Z,19.36
2018-05-07T13:05:54.768Z,20.43
2018-05-07T13:06:54.801Z,19.85
2018-05-07T13:07:54.878Z,18.58
2018-05-07T13:08:54.912Z,17.91
2018-05-07T13:09:54.994Z,17.05
2018-05-07T13:10:55.025Z,17.54